Decoded Metar for LFRH (LORIENT in FRANCE) (IATA:LRT) | Meteo·Mobile Aviation Weather
aviador You're here:

LFRH Decoded Metar

LORIENT in FRANCE
Report Time2019-10-19 21:30:00
UTC Time2019-10-19 22:04:53
Flight Rules vfr VFR
Wind350° at 05 kt
W.Decomp.*RWY 02: 4.4 kt HW 2.3 kt LCW
RWY 07: 1.0 kt HW 4.9 kt LCW
Visibility9999 m
Phenomena:N/A
Clouds:N/A
Expected CloudBase > 400 ft AGL from Temp-Dew spread
CeilingNone
Temp09°C (ISA -6)
Dew Point08°C (94% RH)
AAT6.8°C
QNH1006 hPa
Density Alt-157 ft
Elevation144 ft
Report Wrong Elevation
Raw Report
LFRH 192130Z AUTO 35005KT CAVOK 09/08 Q1006 TEMPO 3000 BR=

Extra information for LFRH:More info

Metar Taf Metar & Taf Last 4 Metars F.Rules Stats Wind Profile Meteogram Temp Stats Airport Information Weather charts Add Link Nearby VenuesMetar ALERT Operation Metar Decoded Social comments